Impacts TAF Board INFO
FOR SITUATIONAL AWARENESS. NOT TO BE USED FOR FLIGHT PLANNING PURPOSES.
IDs:

KMIA - Miami Intl, FL, US

Issued at 0542 UTC 23 Feb 2018
Updated at 0644 UTC 23 Feb 2018
Potential Impact None Slight Moderate High
Time0553Z 23/07Z 23/08Z 23/09Z 23/10Z 23/11Z 23/12Z 23/13Z 23/14Z 23/15Z 23/16Z 23/17Z 23/18Z 23/19Z>>
Type OBS PRVL PRVL PRVL PRVL PRVL PRVL PRVL PRVL PRVL PRVL PRVL PRVL PRVL
VIS 10 >6 >6 >6 >6 >6 >6 >6 >6 >6 >6 >6 >6 >6
CIG -- -- -- -- -- -- -- -- -- -- -- -- -- --
Cover SCT SCT SCT SCT SCT SCT SCT SCT SCT SCT SCT SCT SCT SCT
FltCat VFR VFR VFR VFR VFR VFR VFR VFR VFR VFR VFR VFR VFR VFR
WX -- -- -- -- -- -- -- -- -- -- -- -- -- --
WDir 90 90 90 90 90 90 90 90 110 110 110 110 110 110
WSpd 11 9 9 9 9 9 9 9 15 15 15 15 15 15
WGst -- -- -- -- -- -- -- -- 25 25 25 25 25 25

Raw TAF
KMIA 230542Z 2306/2412 09009KT P6SM SCT025 SCT040
  FM231400 11015G25KT P6SM SCT025 SCT040 SCT250
  FM240000 09010KT P6SM FEW025 SCT040


Raw METAR
KMIA 230553Z 09011KT 10SM SCT023 SCT033 SCT045 24/20 A3031 RMK AO2 SLP262 T02440200 10250 20233 58007 $
KMIA 230453Z 09011KT 10SM FEW027 SCT036 24/20 A3032 RMK AO2 SLP266 T02390200 402830222 $
KMIA 230353Z 09012KT 10SM FEW027 FEW033 24/19 A3032 RMK AO2 SLP268 T02390194 $

METAR Board
Radar Display
Forecast Discussion

FOR SITUATIONAL AWARENESS. NOT TO BE USED FOR FLIGHT PLANNING PURPOSES.